Time;durP1;ratioP1;P1;durP2;ratioP2;P2;SDS_P1;SDS_P2;PMS_P1;PMS_P2;Temp;Humidity;BMP_temperature;BMP_pressure;BME280_temperature;BME280_humidity;BME280_pressure;Samples;Min_cycle;Max_cycle;Signal;HPM_P1;HPM_P2
2021/11/11 00:02:08;;;;;;;;;60.00;46.00;;;;;9.39;47.99;99755.84;6211307;28;97087;-61
2021/11/11 00:05:13;;;;;;;;;55.00;44.00;;;;;9.37;47.82;99753.38;6193508;28;97873;-63
2021/11/11 00:08:17;;;;;;;;;55.00;44.00;;;;;9.31;47.52;99751.44;6210857;28;97371;-63
2021/11/11 00:11:20;;;;;;;;;58.00;44.00;;;;;9.20;47.56;99740.34;6198019;28;98143;-62
2021/11/11 00:14:24;;;;;;;;;53.20;43.60;;;;;9.08;47.75;99738.19;6205762;28;97535;-62
2021/11/11 00:17:29;;;;;;;;;58.00;44.00;;;;;9.08;48.05;99737.38;6217066;28;97371;-62
2021/11/11 00:20:32;;;;;;;;;54.80;43.00;;;;;9.07;48.40;99739.22;6192543;28;97400;-61
2021/11/11 00:23:37;;;;;;;;;57.00;43.80;;;;;9.06;48.19;99740.22;6209313;28;97079;-62
2021/11/11 00:26:41;;;;;;;;;58.00;45.00;;;;;9.03;48.25;99739.78;6210614;28;97045;-65
2021/11/11 00:29:45;;;;;;;;;58.00;46.00;;;;;9.04;48.45;99741.47;6210489;28;97435;-62
2021/11/11 00:32:51;;;;;;;;;57.80;44.00;;;;;9.07;48.46;99736.53;6212102;28;98003;-63
2021/11/11 00:35:54;;;;;;;;;55.80;44.00;;;;;9.13;48.35;99738.47;6192484;28;98408;-61
2021/11/11 00:38:58;;;;;;;;;56.25;45.25;;;;;9.05;48.00;99732.34;6194657;28;97770;-61
2021/11/11 00:42:03;;;;;;;;;53.00;42.00;;;;;8.92;48.20;99738.44;6167764;28;98110;-63
2021/11/11 00:45:07;;;;;;;;;56.50;44.00;;;;;8.82;48.22;99731.69;6209452;28;96646;-61
2021/11/11 00:48:12;;;;;;;;;52.50;42.00;;;;;8.77;48.59;99707.22;6188696;28;98286;-62
2021/11/11 00:51:15;;;;;;;;;54.60;43.00;;;;;8.88;48.56;99728.25;6210382;28;96596;-61
2021/11/11 00:54:21;;;;;;;;;56.20;45.80;;;;;8.91;48.67;99739.44;6191202;28;99185;-64
2021/11/11 00:57:25;;;;;;;;;55.20;43.80;;;;;8.91;48.25;99738.59;6183416;28;98039;-61
2021/11/11 01:00:29;;;;;;;;;53.40;43.00;;;;;8.89;48.12;99740.69;6209561;28;97383;-62
2021/11/11 01:03:40;;;;;;;;;52.80;41.80;;;;;8.72;47.71;99725.78;6208556;28;97347;-63
2021/11/11 01:06:43;;;;;;;;;51.00;40.00;;;;;8.63;47.59;99730.44;6174430;28;97877;-63
2021/11/11 01:09:47;;;;;;;;;50.80;41.40;;;;;8.58;47.88;99719.41;6211908;28;97459;-63
2021/11/11 01:12:51;;;;;;;;;50.75;40.25;;;;;8.58;47.78;99739.06;6188646;28;96758;-62
2021/11/11 01:15:54;;;;;;;;;53.40;42.00;;;;;8.65;48.21;99731.06;6203383;28;97426;-63
2021/11/11 01:18:59;;;;;;;;;51.80;42.40;;;;;8.79;48.15;99727.53;6185834;28;97421;-61
2021/11/11 01:22:03;;;;;;;;;55.50;42.50;;;;;8.92;48.36;99726.84;6191707;28;96612;-61
2021/11/11 01:25:10;;;;;;;;;55.00;42.00;;;;;8.96;47.88;99726.25;6192098;28;97041;-64
2021/11/11 01:28:16;;;;;;;;;53.75;42.50;;;;;8.93;48.23;99729.34;6211674;28;96895;-61
2021/11/11 01:31:20;;;;;;;;;54.50;43.00;;;;;9.02;48.42;99724.66;6175250;28;99539;-63
2021/11/11 01:34:27;;;;;;;;;52.40;43.00;;;;;9.01;47.98;99731.91;6180957;28;97750;-64
2021/11/11 01:37:36;;;;;;;;;52.50;41.00;;;;;8.99;48.10;99727.75;6175220;28;99081;-64
2021/11/11 01:40:40;;;;;;;;;52.40;42.40;;;;;8.90;48.13;99721.63;6192837;28;96666;-62
2021/11/11 01:43:44;;;;;;;;;53.50;42.25;;;;;8.80;47.75;99717.59;6192694;28;97134;-63
2021/11/11 01:46:52;;;;;;;;;50.00;41.00;;;;;8.74;48.02;99715.69;6192781;28;97477;-63
2021/11/11 01:50:00;;;;;;;;;49.25;40.00;;;;;8.64;47.78;99706.06;6178158;28;97018;-62
2021/11/11 01:53:05;;;;;;;;;50.00;39.00;;;;;8.56;48.09;99705.31;6202612;28;97240;-63
2021/11/11 01:56:09;;;;;;;;;52.40;40.80;;;;;8.51;48.20;99699.69;6192129;28;97100;-62
2021/11/11 01:59:15;;;;;;;;;52.60;42.40;;;;;8.50;48.29;99701.53;6193076;28;97224;-62
2021/11/11 02:02:24;;;;;;;;;52.00;41.25;;;;;8.52;48.48;99696.81;6193025;28;97495;-63
2021/11/11 02:05:31;;;;;;;;;51.20;41.00;;;;;8.55;48.02;99695.63;6192418;28;97453;-64
2021/11/11 02:08:34;;;;;;;;;50.50;41.00;;;;;8.56;47.95;99694.56;6187826;28;98032;-64
2021/11/11 02:11:37;;;;;;;;;50.00;41.00;;;;;8.59;48.40;99694.22;6191261;28;98967;-64
2021/11/11 02:14:43;;;;;;;;;54.00;42.00;;;;;8.60;48.46;99690.50;6193044;28;96809;-61
2021/11/11 02:17:48;;;;;;;;;52.00;41.00;;;;;8.69;48.36;99697.44;6190976;28;97111;-61
2021/11/11 02:20:56;;;;;;;;;52.00;41.40;;;;;8.70;48.14;99688.31;6183645;28;97305;-64
2021/11/11 02:24:19;;;;;;;;;50.00;40.00;;;;;8.85;47.96;99697.19;6165866;28;96825;-64
2021/11/11 02:27:31;;;;;;;;;50.00;39.00;;;;;8.89;47.96;99701.19;6203375;28;97382;-63
2021/11/11 02:30:37;;;;;;;;;55.00;41.00;;;;;8.90;47.63;99705.50;6195462;28;97051;-64
2021/11/11 02:33:41;;;;;;;;;52.00;41.00;;;;;8.88;47.52;99704.03;6203000;28;96794;-64
2021/11/11 02:36:56;;;;;;;;;52.00;40.60;;;;;8.86;47.59;99714.16;6194523;28;96771;-64
2021/11/11 02:40:07;;;;;;;;;51.40;39.60;;;;;8.81;47.85;99714.72;6178368;28;98480;-63
2021/11/11 02:43:17;;;;;;;;;53.60;41.60;;;;;8.76;47.78;99708.25;6200012;28;96697;-63
2021/11/11 02:46:25;;;;;;;;;50.20;40.00;;;;;8.72;47.87;99707.78;6199848;28;97477;-62
2021/11/11 02:49:32;;;;;;;;;49.00;40.40;;;;;8.74;48.24;99688.78;6194589;28;98095;-64
2021/11/11 02:52:38;;;;;;;;;52.75;41.25;;;;;8.70;48.99;99696.38;6196546;28;97438;-64
2021/11/11 02:55:42;;;;;;;;;55.40;43.00;;;;;8.72;49.11;99688.16;6191101;28;97435;-62
2021/11/11 02:58:45;;;;;;;;;50.40;40.40;;;;;8.69;48.34;99687.53;6195429;28;96927;-62
2021/11/11 03:01:49;;;;;;;;;54.60;41.00;;;;;8.67;48.50;99686.88;6194990;28;97128;-63
2021/11/11 03:04:53;;;;;;;;;57.60;46.00;;;;;8.69;49.67;99684.00;6193439;28;97561;-63
2021/11/11 03:07:58;;;;;;;;;57.00;44.50;;;;;8.72;49.15;99685.47;6174877;28;97304;-63
2021/11/11 03:11:05;;;;;;;;;57.75;46.00;;;;;8.72;49.95;99685.47;6193274;28;96990;-64
2021/11/11 03:14:34;;;;;;;;;62.80;47.00;;;;;8.76;50.08;99673.28;6210292;28;97384;-64
2021/11/11 03:17:38;;;;;;;;;60.40;47.60;;;;;8.76;49.79;99667.91;6195112;28;96861;-64
2021/11/11 03:20:42;;;;;;;;;62.25;47.75;;;;;8.78;49.81;99671.25;6208849;28;97069;-62
2021/11/11 03:23:49;;;;;;;;;62.00;48.00;;;;;8.80;50.02;99670.03;6175319;28;98312;-63
2021/11/11 03:26:53;;;;;;;;;63.75;46.50;;;;;8.79;49.26;99656.78;6195980;28;96904;-64
2021/11/11 03:29:56;;;;;;;;;57.00;45.00;;;;;8.78;49.14;99647.06;6192179;28;97115;-64
2021/11/11 03:33:01;;;;;;;;;58.00;44.60;;;;;8.75;48.75;99642.06;6212319;28;97266;-63
2021/11/11 03:36:11;;;;;;;;;60.20;46.20;;;;;8.76;49.00;99646.41;6184965;28;97546;-62
2021/11/11 03:39:17;;;;;;;;;59.40;46.00;;;;;8.77;49.36;99646.22;6192862;28;96642;-63
2021/11/11 03:42:21;;;;;;;;;61.00;47.00;;;;;8.70;50.16;99632.69;6181450;28;97567;-64
2021/11/11 03:45:26;;;;;;;;;61.00;47.00;;;;;8.84;50.20;99633.69;6176080;28;96873;-63
2021/11/11 03:48:29;;;;;;;;;60.80;46.00;;;;;8.86;49.75;99636.16;6193134;28;97660;-62
2021/11/11 03:51:35;;;;;;;;;60.00;46.40;;;;;8.89;49.99;99641.19;6183907;28;97259;-64
2021/11/11 03:54:44;;;;;;;;;58.60;46.60;;;;;8.91;50.47;99634.56;6193767;28;97160;-63
2021/11/11 03:57:56;;;;;;;;;59.60;46.00;;;;;8.98;50.11;99630.09;6190521;28;97497;-66
2021/11/11 04:01:00;;;;;;;;;58.75;46.00;;;;;9.01;50.20;99624.31;6192340;28;97118;-61
2021/11/11 04:04:04;;;;;;;;;56.40;46.00;;;;;9.00;50.25;99622.66;6201384;28;97507;-63
2021/11/11 04:07:09;;;;;;;;;60.25;47.00;;;;;8.81;50.14;99600.97;6193368;28;97444;-63
2021/11/11 04:10:14;;;;;;;;;57.80;46.00;;;;;8.86;50.17;99625.41;6193168;28;97435;-62
2021/11/11 04:13:43;;;;;;;;;57.00;46.00;;;;;8.82;50.12;99629.50;6180336;28;96858;-62
2021/11/11 04:16:47;;;;;;;;;59.40;45.40;;;;;8.85;49.83;99634.50;6196422;28;97613;-62
2021/11/11 04:19:52;;;;;;;;;55.50;44.00;;;;;8.82;49.76;99632.19;6194837;28;97604;-64
2021/11/11 04:22:57;;;;;;;;;59.25;46.00;;;;;8.83;49.74;99637.41;6208286;28;97231;-63
2021/11/11 04:26:07;;;;;;;;;57.00;45.00;;;;;8.81;49.38;99641.28;6193824;28;96450;-63
2021/11/11 04:29:19;;;;;;;;;57.00;45.00;;;;;8.75;49.21;99640.19;6183080;28;96805;-62
2021/11/11 04:32:23;;;;;;;;;57.00;45.00;;;;;8.67;49.16;99643.00;6178163;28;96753;-62
2021/11/11 04:35:27;;;;;;;;;56.25;45.00;;;;;8.64;49.28;99629.97;6180258;28;100026;-63
2021/11/11 04:38:41;;;;;;;;;56.40;44.60;;;;;8.53;49.10;99612.47;6187507;28;97057;-63
2021/11/11 04:42:04;;;;;;;;;55.40;44.00;;;;;8.53;49.05;99619.72;6211098;28;97082;-61
2021/11/11 04:45:46;;;;;;;;;53.60;43.00;;;;;8.45;48.76;99619.84;6193235;28;97298;-61
2021/11/11 04:52:38;;;;;;;;;52.60;39.60;;;;;8.27;48.17;99615.69;6203857;28;97486;-61
2021/11/11 05:02:40;;;;;;;;;53.40;42.00;;;;;8.20;48.35;99622.00;6189942;28;99405;-61
2021/11/11 05:05:44;;;;;;;;;55.20;43.00;;;;;8.18;48.86;99616.81;6194156;28;97322;-64
2021/11/11 05:08:47;;;;;;;;;50.00;40.60;;;;;8.22;48.60;99612.72;6193634;28;96690;-64
2021/11/11 05:11:51;;;;;;;;;51.20;41.60;;;;;8.24;48.48;99602.63;6178610;28;98612;-62
2021/11/11 05:14:56;;;;;;;;;51.00;40.40;;;;;8.23;48.40;99608.19;6210728;28;97235;-63
2021/11/11 05:18:00;;;;;;;;;47.00;39.00;;;;;8.19;48.58;99607.75;6175700;28;98458;-62
2021/11/11 05:21:07;;;;;;;;;50.00;40.25;;;;;8.19;48.50;99620.34;6191864;28;97428;-63
2021/11/11 05:24:12;;;;;;;;;53.00;41.00;;;;;8.20;48.73;99624.69;6180746;28;99790;-63
2021/11/11 05:27:19;;;;;;;;;56.25;43.00;;;;;8.08;48.66;99604.69;6191009;28;96653;-63
2021/11/11 05:30:24;;;;;;;;;55.25;43.00;;;;;8.17;48.81;99617.00;6192253;28;97692;-62
2021/11/11 05:33:29;;;;;;;;;53.00;42.00;;;;;8.17;49.27;99620.50;6199287;28;96615;-62
2021/11/11 05:36:34;;;;;;;;;52.25;41.75;;;;;8.19;48.72;99617.66;6170439;28;97939;-63
2021/11/11 05:39:37;;;;;;;;;50.60;41.60;;;;;8.20;48.87;99622.84;6192227;28;97752;-61
2021/11/11 05:42:42;;;;;;;;;52.00;40.00;;;;;8.18;48.76;99621.34;6196910;28;97220;-63
2021/11/11 05:45:47;;;;;;;;;52.00;41.00;;;;;8.07;48.05;99619.97;6211693;28;97432;-62
2021/11/11 05:48:51;;;;;;;;;50.25;39.00;;;;;8.04;48.14;99627.56;6193574;28;96805;-63
2021/11/11 05:51:54;;;;;;;;;49.00;39.75;;;;;7.93;48.01;99618.13;6211958;28;98357;-63
2021/11/11 05:54:58;;;;;;;;;49.80;41.40;;;;;8.02;48.50;99632.28;6211720;28;98374;-63
2021/11/11 05:58:02;;;;;;;;;49.00;38.25;;;;;7.94;48.29;99614.44;6203787;28;97514;-63
2021/11/11 06:01:07;;;;;;;;;55.50;43.00;;;;;8.17;48.42;99625.88;6192734;28;97129;-63
2021/11/11 06:04:20;;;;;;;;;55.20;43.00;;;;;8.32;48.40;99633.94;6195325;28;97442;-62
2021/11/11 06:07:28;;;;;;;;;55.40;43.00;;;;;8.54;48.15;99638.34;6183825;28;97212;-63
2021/11/11 06:10:32;;;;;;;;;49.80;40.80;;;;;8.63;47.97;99634.50;6193366;28;97558;-63
2021/11/11 06:13:36;;;;;;;;;52.00;42.60;;;;;8.87;47.47;99632.47;6188504;28;97639;-61
2021/11/11 06:16:40;;;;;;;;;51.40;41.60;;;;;9.29;46.54;99631.56;6214908;28;97219;-62
2021/11/11 06:19:46;;;;;;;;;50.40;40.80;;;;;9.64;45.55;99624.38;6214194;28;97053;-63
2021/11/11 06:22:49;;;;;;;;;50.40;40.00;;;;;9.64;44.91;99618.97;6194416;28;97420;-64
2021/11/11 06:25:57;;;;;;;;;52.60;40.00;;;;;10.21;43.87;99616.84;6167380;28;98994;-62
2021/11/11 06:29:04;;;;;;;;;48.75;39.00;;;;;10.98;42.11;99615.56;6195220;28;97013;-62
2021/11/11 06:32:09;;;;;;;;;49.60;39.00;;;;;11.98;40.38;99624.16;6195434;28;96540;-62
2021/11/11 06:35:33;;;;;;;;;49.00;39.00;;;;;12.91;38.45;99624.53;6195131;28;97194;-64
2021/11/11 06:38:37;;;;;;;;;48.80;39.00;;;;;13.64;37.38;99630.19;6190193;28;97872;-63
2021/11/11 06:41:40;;;;;;;;;47.40;40.00;;;;;14.31;36.41;99618.41;6210462;28;97427;-63
2021/11/11 06:44:47;;;;;;;;;50.00;38.00;;;;;14.77;35.39;99622.41;6199968;28;99656;-63
2021/11/11 06:47:52;;;;;;;;;50.00;40.00;;;;;14.99;34.91;99575.50;6212956;28;98271;-62
2021/11/11 06:50:55;;;;;;;;;46.20;38.20;;;;;14.96;34.91;99607.69;6199739;28;97991;-62
2021/11/11 06:53:59;;;;;;;;;52.00;40.00;;;;;14.37;35.82;99609.38;6218710;28;97041;-64
2021/11/11 06:57:02;;;;;;;;;51.20;41.00;;;;;13.92;36.53;99603.44;6210894;28;97080;-62
2021/11/11 07:00:12;;;;;;;;;51.40;40.60;;;;;13.54;37.40;99608.19;6185580;28;96507;-63
2021/11/11 07:03:17;;;;;;;;;49.60;39.00;;;;;13.63;37.46;99610.44;6200646;28;97750;-62
2021/11/11 07:06:21;;;;;;;;;47.40;39.00;;;;;13.50;37.86;99615.13;6206342;28;98158;-63
2021/11/11 07:09:25;;;;;;;;;54.60;42.00;;;;;13.57;38.05;99616.75;6212351;28;96740;-63
2021/11/11 07:12:28;;;;;;;;;52.00;40.60;;;;;13.55;37.97;99623.41;6206452;28;97787;-62
2021/11/11 07:15:32;;;;;;;;;52.20;42.00;;;;;13.27;38.56;99624.72;6214279;28;97192;-63
2021/11/11 07:18:37;;;;;;;;;52.00;40.40;;;;;13.60;38.00;99619.00;6194396;28;96552;-63
2021/11/11 07:21:40;;;;;;;;;54.80;44.00;;;;;15.15;35.85;99622.84;6214580;28;97211;-61
2021/11/11 07:24:43;;;;;;;;;51.20;41.00;;;;;16.52;33.61;99612.38;6191068;28;96699;-62
2021/11/11 07:27:47;;;;;;;;;49.50;39.50;;;;;17.86;31.92;99608.69;6214063;28;96695;-63
2021/11/11 07:30:51;;;;;;;;;54.00;42.00;;;;;18.85;29.90;99603.91;6212277;28;97050;-62
2021/11/11 07:33:56;;;;;;;;;52.00;41.00;;;;;19.77;28.90;99603.59;6212747;28;96989;-64
2021/11/11 07:37:00;;;;;;;;;52.60;41.60;;;;;20.63;28.14;99594.97;6211947;28;97405;-63
2021/11/11 07:40:07;;;;;;;;;52.25;42.00;;;;;21.35;26.43;99605.78;6211911;28;96855;-63
2021/11/11 07:43:10;;;;;;;;;52.00;41.80;;;;;22.18;25.71;99602.66;6212839;28;97172;-64
2021/11/11 07:46:18;;;;;;;;;55.40;43.60;;;;;22.77;25.05;99594.44;6220287;28;97452;-62
2021/11/11 07:49:22;;;;;;;;;54.40;43.00;;;;;23.18;24.70;99594.94;6208496;28;97157;-64
2021/11/11 07:52:26;;;;;;;;;55.60;44.00;;;;;23.81;24.07;99595.78;6209027;28;97340;-64
2021/11/11 07:55:31;;;;;;;;;54.20;43.00;;;;;24.40;23.32;99595.38;6213200;28;96695;-66
2021/11/11 07:58:34;;;;;;;;;57.00;44.00;;;;;24.89;22.88;99578.47;6211767;28;97524;-64
2021/11/11 08:01:37;;;;;;;;;58.00;45.00;;;;;25.41;22.35;99577.34;6213068;28;97414;-64
2021/11/11 08:04:42;;;;;;;;;58.00;47.00;;;;;26.02;21.43;99570.72;6213722;28;96684;-62
2021/11/11 08:07:47;;;;;;;;;58.20;46.00;;;;;26.64;21.16;99568.31;6215380;28;97347;-66
2021/11/11 08:10:50;;;;;;;;;56.25;43.25;;;;;27.19;20.78;99566.22;6212849;28;96520;-63
2021/11/11 08:13:53;;;;;;;;;58.80;45.80;;;;;27.56;20.01;99579.69;6216200;28;98029;-65
2021/11/11 08:16:57;;;;;;;;;56.60;45.00;;;;;27.96;19.98;99579.72;6198701;28;98598;-64
2021/11/11 08:20:01;;;;;;;;;58.40;46.00;;;;;28.37;19.64;99593.28;6212617;28;96560;-64
2021/11/11 08:23:05;;;;;;;;;56.80;45.80;;;;;28.85;19.26;99580.19;6213169;28;96517;-63
2021/11/11 08:26:08;;;;;;;;;55.00;43.75;;;;;29.12;18.96;99592.13;6207969;28;98096;-65
2021/11/11 08:29:11;;;;;;;;;55.00;44.00;;;;;29.60;18.37;99591.91;6211152;28;98059;-65
2021/11/11 08:32:15;;;;;;;;;53.00;42.40;;;;;29.86;17.66;99589.06;6216580;28;97496;-63
2021/11/11 08:35:22;;;;;;;;;53.00;43.00;;;;;30.10;17.45;99586.56;6216514;28;97130;-65
2021/11/11 08:38:27;;;;;;;;;52.00;42.00;;;;;30.23;17.42;99573.56;6203945;28;97393;-65
2021/11/11 08:41:30;;;;;;;;;55.00;44.00;;;;;30.24;17.76;99572.41;6197000;28;97338;-65
2021/11/11 08:44:34;;;;;;;;;56.60;44.00;;;;;30.29;17.90;99572.22;6204710;28;97829;-64
2021/11/11 08:47:38;;;;;;;;;56.00;44.60;;;;;30.58;17.28;99574.22;6217343;28;97335;-63
2021/11/11 08:50:43;;;;;;;;;54.25;44.00;;;;;30.61;17.41;99563.22;6195349;28;96759;-64
2021/11/11 08:53:47;;;;;;;;;55.25;44.00;;;;;30.56;17.60;99568.97;6203857;28;97834;-64
2021/11/11 08:56:52;;;;;;;;;53.00;42.60;;;;;30.88;16.94;99565.47;6193014;28;97456;-63
2021/11/11 08:59:55;;;;;;;;;53.00;42.40;;;;;31.24;16.91;99572.38;6209415;28;97159;-64
2021/11/11 09:03:00;;;;;;;;;51.00;41.80;;;;;31.51;16.31;99574.59;6223270;28;97264;-63
2021/11/11 09:06:06;;;;;;;;;55.00;44.00;;;;;31.73;16.32;99570.59;6200536;28;97399;-63
2021/11/11 09:09:09;;;;;;;;;51.00;41.00;;;;;31.86;16.27;99563.91;6189205;28;97561;-64
2021/11/11 09:12:13;;;;;;;;;55.00;43.25;;;;;31.97;16.66;99558.66;6178605;28;97073;-63
2021/11/11 09:15:18;;;;;;;;;55.25;44.50;;;;;31.96;16.13;99560.63;6192762;28;96815;-64
2021/11/11 09:18:22;;;;;;;;;52.60;42.60;;;;;32.07;16.71;99550.66;6187508;28;96931;-64
2021/11/11 09:21:37;;;;;;;;;53.00;43.00;;;;;32.31;16.32;99554.63;6210211;28;96920;-64
2021/11/11 09:24:40;;;;;;;;;50.33;40.33;;;;;32.40;16.06;99544.94;6207853;28;97743;-63
2021/11/11 09:27:46;;;;;;;;;53.25;42.25;;;;;32.38;16.16;99544.50;6211023;28;96813;-64
2021/11/11 09:30:50;;;;;;;;;50.60;41.80;;;;;32.41;16.16;99535.44;6199039;28;96778;-63
2021/11/11 09:33:54;;;;;;;;;53.00;43.20;;;;;32.12;15.93;99532.88;6197851;28;96765;-64
2021/11/11 09:36:58;;;;;;;;;52.00;42.60;;;;;32.17;16.59;99532.66;6215105;28;97478;-63
2021/11/11 09:40:02;;;;;;;;;53.75;43.25;;;;;32.24;16.20;99516.97;6224869;28;97116;-63
2021/11/11 09:43:07;;;;;;;;;50.00;41.00;;;;;32.25;15.65;99507.41;6197198;28;97483;-63
2021/11/11 09:46:13;;;;;;;;;50.50;41.00;;;;;32.44;16.12;99512.41;6202761;28;97562;-63
2021/11/11 09:49:16;;;;;;;;;48.40;39.00;;;;;32.34;15.91;99507.31;6214592;28;97143;-62
2021/11/11 09:52:21;;;;;;;;;48.60;40.60;;;;;32.47;15.67;99506.13;6197673;28;96705;-64
2021/11/11 09:58:49;;;;;;;;;50.00;39.00;;;;;32.03;15.91;99490.31;6214879;28;97435;-63
2021/11/11 10:01:54;;;;;;;;;47.00;39.50;;;;;32.11;15.94;99479.06;6214515;28;96987;-63
2021/11/11 10:04:58;;;;;;;;;48.00;40.00;;;;;32.21;16.31;99486.97;6208145;28;97135;-62
2021/11/11 10:08:03;;;;;;;;;48.40;39.00;;;;;32.44;15.95;99478.09;6209316;28;97975;-62
2021/11/11 10:11:11;;;;;;;;;50.50;40.50;;;;;32.64;15.99;99489.13;6190153;28;96836;-64
2021/11/11 10:14:15;;;;;;;;;49.25;40.50;;;;;32.71;15.79;99488.50;6204203;28;96680;-62
2021/11/11 10:17:22;;;;;;;;;47.00;38.00;;;;;32.81;15.47;99493.59;6225572;28;97567;-63
2021/11/11 10:20:31;;;;;;;;;50.00;41.40;;;;;32.89;15.53;99497.44;6226276;28;97232;-63
2021/11/11 10:23:36;;;;;;;;;49.20;40.60;;;;;32.80;15.70;99491.97;6226960;28;97472;-63
2021/11/11 10:26:43;;;;;;;;;48.20;40.00;;;;;32.79;15.78;99489.56;6225565;28;97249;-62
2021/11/11 10:29:50;;;;;;;;;48.50;40.00;;;;;32.74;15.62;99481.41;6217907;28;98446;-62
2021/11/11 10:32:54;;;;;;;;;45.50;36.00;;;;;32.32;15.62;99459.41;6221484;28;97589;-64
2021/11/11 10:35:58;;;;;;;;;46.00;36.00;;;;;32.38;15.42;99480.31;6229766;28;97711;-62
2021/11/11 10:39:15;;;;;;;;;44.40;35.80;;;;;32.12;15.47;99483.50;6193883;28;96556;-62
2021/11/11 10:42:21;;;;;;;;;44.50;35.00;;;;;31.96;15.26;99476.16;6205866;28;97499;-64
2021/11/11 10:45:27;;;;;;;;;43.60;35.40;;;;;31.86;15.43;99457.94;6225494;27;97472;-64
2021/11/11 10:48:31;;;;;;;;;44.20;36.00;;;;;31.87;15.76;99455.94;6223003;28;97327;-63
2021/11/11 10:51:35;;;;;;;;;51.00;41.00;;;;;31.89;15.85;99464.78;6229775;28;97425;-62
2021/11/11 10:55:04;;;;;;;;;47.60;39.00;;;;;31.99;15.81;99458.72;6214025;28;98034;-64
2021/11/11 10:58:10;;;;;;;;;46.50;39.00;;;;;31.50;16.05;99452.28;6231720;28;98135;-64
2021/11/11 11:01:19;;;;;;;;;49.60;39.00;;;;;30.94;15.64;99446.31;6192887;28;99243;-62
2021/11/11 11:04:27;;;;;;;;;48.40;39.00;;;;;30.61;17.07;99449.09;6197204;28;96758;-62
2021/11/11 11:07:30;;;;;;;;;47.20;38.20;;;;;30.61;17.03;99453.84;6219402;28;97321;-64
2021/11/11 11:10:37;;;;;;;;;50.00;41.00;;;;;30.84;16.30;99455.09;6213851;28;96907;-62
2021/11/11 11:13:43;;;;;;;;;50.00;40.00;;;;;30.64;16.53;99445.66;6193597;28;99355;-62
2021/11/11 11:16:47;;;;;;;;;47.60;39.00;;;;;30.59;16.53;99445.03;6202492;28;96809;-63
2021/11/11 11:19:51;;;;;;;;;51.60;41.40;;;;;30.50;16.50;99442.31;6193802;28;98591;-64
2021/11/11 11:23:16;;;;;;;;;52.25;41.00;;;;;30.54;16.79;99437.72;6212488;28;97137;-64
2021/11/11 11:26:24;;;;;;;;;51.50;41.00;;;;;30.68;16.82;99443.81;6204868;28;96680;-64
2021/11/11 11:29:33;;;;;;;;;50.00;40.25;;;;;30.77;16.96;99444.53;6211606;28;96593;-64
2021/11/11 11:32:41;;;;;;;;;47.25;37.00;;;;;30.77;16.56;99449.28;6195852;28;98832;-63
2021/11/11 11:35:45;;;;;;;;;46.80;37.60;;;;;30.72;16.22;99444.75;6194608;28;97930;-63
2021/11/11 11:38:54;;;;;;;;;44.40;37.00;;;;;30.59;16.66;99445.03;6213482;28;97180;-62
2021/11/11 11:42:02;;;;;;;;;45.20;36.20;;;;;30.52;16.78;99434.44;6208058;28;98258;-64
2021/11/11 11:45:08;;;;;;;;;47.00;39.00;;;;;30.37;16.36;99441.41;6195484;28;97453;-64
2021/11/11 11:48:19;;;;;;;;;51.00;39.00;;;;;30.25;16.52;99443.31;6214405;28;97343;-62
2021/11/11 11:51:25;;;;;;;;;49.00;39.00;;;;;30.24;16.60;99445.28;6212700;28;97566;-65
2021/11/11 11:54:35;;;;;;;;;48.75;39.00;;;;;30.23;16.45;99443.66;6215350;28;97487;-63
2021/11/11 11:57:55;;;;;;;;;48.75;40.00;;;;;30.19;16.58;99453.00;6209863;28;96468;-62
2021/11/11 12:01:14;;;;;;;;;49.00;39.00;;;;;30.01;17.00;99439.19;6214313;28;97659;-66
2021/11/11 12:04:27;;;;;;;;;49.00;39.20;;;;;29.77;17.72;99450.09;6189474;28;97581;-66
2021/11/11 12:07:53;;;;;;;;;48.50;39.00;;;;;29.80;17.78;99449.44;6208444;28;96522;-64
2021/11/11 12:14:44;;;;;;;;;48.00;39.00;;;;;29.50;17.91;99431.13;6151795;28;98614;-62
2021/11/11 12:38:36;;;;;;;;;39.20;33.00;;;;;27.16;19.67;99436.75;6210597;28;96734;-64
2021/11/11 12:41:57;;;;;;;;;36.00;31.40;;;;;27.14;19.76;99419.63;6212217;28;97217;-62
2021/11/11 12:45:13;;;;;;;;;36.50;32.00;;;;;26.87;19.99;99422.59;6183491;28;97234;-64
2021/11/11 12:48:21;;;;;;;;;38.00;32.60;;;;;26.76;20.01;99423.94;6211997;28;97142;-64
2021/11/11 12:51:25;;;;;;;;;36.00;32.00;;;;;26.58;20.59;99426.59;6194576;28;97175;-63
2021/11/11 12:54:28;;;;;;;;;41.00;33.00;;;;;26.29;20.72;99428.97;6213435;28;97458;-64
2021/11/11 12:57:32;;;;;;;;;34.00;31.00;;;;;26.02;21.13;99418.75;6185632;28;96785;-62
2021/11/11 13:00:38;;;;;;;;;36.00;31.00;;;;;25.86;21.25;99422.97;6211687;28;97247;-63
2021/11/11 13:03:49;;;;;;;;;36.00;30.00;;;;;25.69;21.71;99426.38;6210574;28;97222;-63
2021/11/11 13:06:56;;;;;;;;;36.40;32.00;;;;;25.55;21.83;99430.25;6225343;28;97168;-62
2021/11/11 13:10:12;;;;;;;;;37.00;30.60;;;;;25.42;21.78;99421.63;6193219;28;97186;-63
2021/11/11 13:13:19;;;;;;;;;31.00;27.00;;;;;25.18;21.97;99436.72;6214449;28;98404;-64
2021/11/11 13:16:22;;;;;;;;;30.00;26.00;;;;;25.02;21.86;99430.69;6192491;28;100121;-64
2021/11/11 13:19:38;;;;;;;;;24.50;23.50;;;;;24.87;22.43;99444.75;6193021;28;100329;-62
2021/11/11 13:22:50;;;;;;;;;25.60;24.00;;;;;24.68;22.67;99428.19;6190096;28;98345;-64
2021/11/11 14:04:13;;;;;;;;;40.80;35.00;;;;;22.27;27.77;99428.72;6211405;28;97217;-65
2021/11/11 15:16:42;;;;;;;;;44.80;35.20;;;;;16.87;37.14;99412.34;6217647;28;97092;-63
2021/11/11 15:57:29;;;;;;;;;49.40;39.00;;;;;16.03;38.25;99448.69;6194173;28;97379;-64
2021/11/11 16:00:43;;;;;;;;;46.75;38.00;;;;;15.93;38.78;99448.53;6211334;28;96493;-65
2021/11/11 16:20:57;;;;;;;;;46.25;37.25;;;;;15.63;39.44;99442.50;6201712;28;97465;-65
2021/11/11 16:24:12;;;;;;;;;46.75;37.75;;;;;15.59;39.53;99442.94;6214916;28;96834;-63
2021/11/11 16:27:18;;;;;;;;;45.80;36.00;;;;;15.54;39.63;99439.34;6197720;28;97899;-64
2021/11/11 16:30:23;;;;;;;;;49.40;39.00;;;;;15.52;39.53;99444.16;6212963;28;99550;-63
2021/11/11 16:33:26;;;;;;;;;47.20;39.00;;;;;15.51;39.80;99450.66;6224674;28;98690;-64
2021/11/11 16:36:32;;;;;;;;;49.20;38.80;;;;;15.51;39.73;99459.66;6205081;28;97364;-64
2021/11/11 16:39:36;;;;;;;;;47.40;39.00;;;;;15.53;39.47;99462.13;6211348;28;97030;-65
2021/11/11 16:42:41;;;;;;;;;47.00;39.20;;;;;15.46;39.97;99456.78;6189707;28;97957;-65
2021/11/11 16:45:48;;;;;;;;;49.00;40.40;;;;;15.42;39.95;99463.78;6195700;28;97877;-64
2021/11/11 16:48:52;;;;;;;;;50.60;39.00;;;;;15.36;40.20;99472.88;6214573;28;97664;-64
2021/11/11 16:51:55;;;;;;;;;50.50;40.00;;;;;15.34;40.02;99471.47;6198761;28;98687;-63
2021/11/11 16:54:58;;;;;;;;;48.00;39.00;;;;;15.32;40.49;99473.59;6214847;28;97270;-65
2021/11/11 16:58:03;;;;;;;;;51.00;41.00;;;;;15.30;40.29;99464.84;6218819;28;97231;-64
2021/11/11 17:01:07;;;;;;;;;48.50;40.00;;;;;15.28;40.42;99473.25;6199102;28;97538;-65
2021/11/11 17:04:10;;;;;;;;;49.00;39.25;;;;;15.26;40.43;99469.09;6209674;28;98159;-63
2021/11/11 17:07:13;;;;;;;;;49.00;38.40;;;;;15.21;40.66;99469.81;6212224;28;97555;-63
2021/11/11 17:10:18;;;;;;;;;48.40;39.00;;;;;15.22;40.63;99478.78;6207030;28;96722;-63
2021/11/11 17:13:23;;;;;;;;;47.00;38.00;;;;;15.18;40.59;99473.84;6193666;28;96749;-63
2021/11/11 17:16:27;;;;;;;;;48.60;39.00;;;;;15.16;40.77;99473.25;6205334;28;97125;-64
2021/11/11 17:19:53;;;;;;;;;47.00;38.20;;;;;15.17;40.63;99482.22;6194151;28;98373;-64
2021/11/11 17:23:00;;;;;;;;;47.80;38.60;;;;;15.15;40.88;99479.72;6212309;28;97085;-65
2021/11/11 17:26:17;;;;;;;;;49.50;39.00;;;;;15.16;40.81;99486.00;6212433;28;96780;-63
2021/11/11 17:29:23;;;;;;;;;48.50;38.00;;;;;15.05;41.24;99481.41;6211334;28;96588;-64
2021/11/11 17:32:30;;;;;;;;;52.00;39.50;;;;;14.97;41.50;99484.44;6195918;28;97608;-63
2021/11/11 17:35:34;;;;;;;;;52.40;39.40;;;;;14.93;41.27;99483.28;6212457;28;97143;-65
2021/11/11 17:38:40;;;;;;;;;46.50;38.75;;;;;14.90;41.48;99491.91;6205687;28;97165;-66
2021/11/11 17:41:47;;;;;;;;;50.00;39.60;;;;;14.83;42.01;99489.28;6189512;28;97461;-64